Time;durP1;ratioP1;P1;durP2;ratioP2;P2;SDS_P1;SDS_P2;PMS_P1;PMS_P2;Temp;Humidity;BMP_temperature;BMP_pressure;BME280_temperature;BME280_humidity;BME280_pressure;Samples;Min_cycle;Max_cycle;Signal;HPM_P1;HPM_P2
2023/03/27 06:14:37;;;;;;;9.70;3.00;;;6.40;1.00;;;;;;1110252;23;20518;-84
2023/03/27 06:21:05;;;;;;;8.00;2.75;;;6.90;1.00;;;;;;4937929;29;20204;-83
2023/03/27 06:27:46;;;;;;;5.17;2.53;;;11.10;1.00;;;;;;4952701;28;20540;-84
2023/03/27 06:30:22;;;;;;;7.33;2.90;;;10.50;99.90;;;;;;5015880;28;20426;-84
2023/03/27 06:33:47;;;;;;;7.60;3.00;;;9.40;99.90;;;;;;5013069;28;20457;-84
2023/03/27 06:36:49;;;;;;;5.85;2.58;;;8.50;99.90;;;;;;4993034;28;20486;-85
2023/03/27 06:57:19;;;;;;;3.77;2.60;;;22.30;99.90;;;;;;4961704;28;20430;-85
2023/03/27 06:59:50;;;;;;;8.97;2.47;;;26.30;99.90;;;;;;4977035;28;20430;-86
2023/03/27 07:15:10;;;;;;;7.53;2.77;;;32.30;99.90;;;;;;4954344;28;20490;-86
2023/03/27 07:18:30;;;;;;;8.17;1.93;;;31.80;99.90;;;;;;4959341;28;20538;-86
2023/03/27 07:21:27;;;;;;;6.77;2.47;;;33.20;99.90;;;;;;4975397;28;20446;-86
2023/03/27 07:38:09;;;;;;;5.53;2.10;;;34.80;99.90;;;;;;4944351;28;20437;-83
2023/03/27 07:44:42;;;;;;;8.63;2.13;;;35.80;99.90;;;;;;4803423;29;20484;-86
2023/03/27 07:47:25;;;;;;;6.60;2.27;;;33.80;99.90;;;;;;4867150;29;20452;-86
2023/03/27 07:53:44;;;;;;;6.57;1.97;;;26.70;99.90;;;;;;5109161;23;20496;-84
2023/03/27 07:56:58;;;;;;;5.53;2.57;;;26.90;99.90;;;;;;5016338;28;20486;-84
2023/03/27 08:03:32;;;;;;;9.80;2.07;;;29.30;99.90;;;;;;4921018;29;20486;-84
2023/03/27 08:06:35;;;;;;;4.60;2.47;;;25.20;99.90;;;;;;4927363;28;20445;-84
2023/03/27 08:12:33;;;;;;;9.03;2.27;;;19.50;99.90;;;;;;4996951;28;20435;-84
2023/03/27 08:15:14;;;;;;;4.77;2.07;;;19.90;99.90;;;;;;4998566;28;20441;-85
2023/03/27 08:18:08;;;;;;;5.27;2.20;;;18.50;99.90;;;;;;4990227;28;20484;-85
2023/03/27 08:20:46;;;;;;;4.40;2.10;;;18.40;99.90;;;;;;4977699;28;20421;-86
2023/03/27 08:23:12;;;;;;;4.40;2.30;;;19.30;99.90;;;;;;4985915;28;20462;-85
2023/03/27 08:25:41;;;;;;;6.13;2.80;;;21.20;99.90;;;;;;4989871;28;20580;-86
2023/03/27 08:28:26;;;;;;;;;;;;;;;;;;;;;
2023/03/27 08:31:24;;;;;;;9.77;1.83;;;24.70;99.90;;;;;;5002927;28;20495;-85
2023/03/27 08:34:12;;;;;;;9.77;2.00;;;23.10;99.90;;;;;;4997895;28;20461;-85
2023/03/27 08:36:51;;;;;;;;;;;;;;;;;;;;;
2023/03/27 08:39:29;;;;;;;10.23;2.37;;;17.70;99.90;;;;;;5008862;28;20492;-84
2023/03/27 08:42:23;;;;;;;13.33;1.90;;;19.70;99.90;;;;;;4993110;28;20427;-85
2023/03/27 08:45:23;;;;;;;6.77;1.70;;;23.30;99.90;;;;;;5005067;28;20438;-84
2023/03/27 08:51:59;;;;;;;5.60;2.33;;;24.10;99.90;;;;;;5009959;28;20429;-85
2023/03/27 08:58:39;;;;;;;;;;;;;;;;;;;;;
2023/03/27 09:05:17;;;;;;;;;;;;;;;;;;;;;
2023/03/27 09:08:00;;;;;;;8.50;2.10;;;28.90;99.90;;;;;;5007158;28;20458;-84
2023/03/27 09:11:26;;;;;;;7.53;1.90;;;28.80;99.90;;;;;;4988670;28;20442;-84
2023/03/27 09:14:20;;;;;;;;;;;;;;;;;;;;;
2023/03/27 09:17:27;;;;;;;8.77;2.20;;;26.80;99.90;;;;;;4967312;28;20483;-83
2023/03/27 09:20:17;;;;;;;6.00;1.97;;;25.80;99.90;;;;;;4987260;28;20453;-85
2023/03/27 09:22:53;;;;;;;4.87;2.00;;;23.40;99.90;;;;;;4984342;28;20473;-85
2023/03/27 09:25:37;;;;;;;7.80;2.40;;;21.40;97.60;;;;;;5009359;28;20592;-85
2023/03/27 09:29:07;;;;;;;3.63;1.87;;;20.00;94.00;;;;;;5002789;28;20495;-84
2023/03/27 09:32:16;;;;;;;;;;;;;;;;;;;;;
2023/03/27 09:35:31;;;;;;;4.10;1.73;;;23.30;99.90;;;;;;4868675;29;20544;-84
2023/03/27 09:38:29;;;;;;;5.33;1.97;;;26.40;99.90;;;;;;4898622;29;20455;-83
2023/03/27 09:41:07;;;;;;;5.87;1.80;;;27.90;99.90;;;;;;4974721;28;20433;-85
2023/03/27 09:44:10;;;;;;;12.40;2.47;;;28.10;99.90;;;;;;5003563;28;20497;-84
2023/03/27 09:46:58;;;;;;;7.10;1.60;;;28.70;99.90;;;;;;4959646;28;20497;-85
2023/03/27 09:50:03;;;;;;;;;;;;;;;;;;;;;
2023/03/27 10:00:36;;;;;;;4.87;1.60;;;27.30;99.90;;;;;;4922541;29;20549;-84
2023/03/27 10:03:22;;;;;;;5.13;1.73;;;23.30;93.40;;;;;;5000955;28;20473;-84
2023/03/27 10:10:11;;;;;;;4.03;1.73;;;19.80;81.30;;;;;;4937335;28;20511;-84
2023/03/27 10:13:23;;;;;;;5.53;1.80;;;20.90;88.30;;;;;;4986176;28;20476;-83
2023/03/27 10:16:34;;;;;;;;;;;;;;;;;;;;;
2023/03/27 10:20:21;;;;;;;6.03;1.67;;;18.50;74.40;;;;;;4982065;28;20532;-83
2023/03/27 10:26:04;;;;;;;4.97;1.60;;;15.60;60.30;;;;;;5003549;28;20489;-83
2023/03/27 10:32:29;;;;;;;;;;;;;;;;;;;;;
2023/03/27 10:38:48;;;;;;;;;;;;;;;;;;;;;
2023/03/27 10:48:55;;;;;;;5.30;1.70;;;21.50;95.30;;;;;;4875304;29;20424;-84
2023/03/27 10:52:08;;;;;;;5.00;1.87;;;19.20;85.90;;;;;;4981203;28;20461;-86
2023/03/27 10:55:32;;;;;;;;;;;;;;;;;;;;;
2023/03/27 11:02:22;;;;;;;;;;;;;;;;;;;;;
2023/03/27 11:06:16;;;;;;;5.90;1.10;;;23.70;99.90;;;;;;4935110;28;20502;-85
2023/03/27 11:08:53;;;;;;;4.20;1.00;;;23.10;99.90;;;;;;4983298;28;20547;-85
2023/03/27 11:12:18;;;;;;;4.27;1.53;;;22.40;98.80;;;;;;4981578;28;20434;-83
2023/03/27 11:16:16;;;;;;;;;;;;;;;;;;;;;
2023/03/27 11:19:26;;;;;;;;;;;;;;;;;;;;;
2023/03/27 11:30:03;;;;;;;6.60;1.07;;;24.70;99.90;;;;;;4929387;29;20451;-84
2023/03/27 11:36:45;;;;;;;2.70;1.00;;;22.10;93.60;;;;;;4897092;29;20444;-84
2023/03/27 11:40:12;;;;;;;5.50;1.00;;;19.90;83.40;;;;;;4890143;29;20472;-84
2023/03/27 11:42:55;;;;;;;2.80;1.33;;;18.50;73.90;;;;;;4986862;28;20466;-87
2023/03/27 11:51:41;;;;;;;2.57;0.97;;;16.10;66.20;;;;;;4997898;28;20438;-84
2023/03/27 11:55:09;;;;;;;;;;;;;;;;;;;;;
2023/03/27 11:57:44;;;;;;;3.97;0.97;;;15.60;69.70;;;;;;4993895;28;21082;-83
2023/03/27 12:00:57;;;;;;;2.13;1.10;;;16.00;75.00;;;;;;4983582;28;20445;-84
2023/03/27 12:04:13;;;;;;;;;;;;;;;;;;;;;
2023/03/27 12:07:17;;;;;;;;;;;;;;;;;;;;;
2023/03/27 12:14:00;;;;;;;5.10;1.10;;;20.70;99.90;;;;;;4914952;29;20866;-84
2023/03/27 12:17:08;;;;;;;;;;;;;;;;;;;;;
2023/03/27 12:23:38;;;;;;;1.63;1.07;;;18.60;94.50;;;;;;4954893;28;20478;-83
2023/03/27 12:26:44;;;;;;;3.80;1.57;;;18.80;95.50;;;;;;5006693;28;20477;-83
2023/03/27 12:30:04;;;;;;;2.60;1.10;;;18.80;96.20;;;;;;4989276;28;20439;-84
2023/03/27 12:36:47;;;;;;;3.70;1.40;;;19.40;98.90;;;;;;4916636;29;20447;-86
2023/03/27 12:43:42;;;;;;;;;;;;;;;;;;;;;
2023/03/27 12:50:08;;;;;;;4.83;1.60;;;17.90;93.30;;;;;;4999419;28;20525;-83
2023/03/27 12:56:43;;;;;;;;;;;;;;;;;;;;;
2023/03/27 12:59:54;;;;;;;3.63;1.70;;;14.50;82.70;;;;;;5004987;28;20461;-87
2023/03/27 13:02:49;;;;;;;5.40;1.70;;;13.80;84.30;;;;;;4909430;29;20576;-83
2023/03/27 13:09:47;;;;;;;;;;;;;;;;;;;;;
2023/03/27 13:16:21;;;;;;;3.83;1.27;;;16.70;96.70;;;;;;5005795;28;20522;-85
2023/03/27 13:19:43;;;;;;;3.00;1.20;;;15.40;92.30;;;;;;4976882;28;20474;-84
2023/03/27 13:22:51;;;;;;;3.37;1.10;;;15.00;91.50;;;;;;4996902;23;20451;-84
2023/03/27 13:26:09;;;;;;;;;;;;;;;;;;;;;
2023/03/27 13:33:03;;;;;;;2.60;1.10;;;15.20;92.50;;;;;;5035872;23;20415;-85
2023/03/27 13:36:21;;;;;;;;;;;;;;;;;;;;;
2023/03/27 13:39:54;;;;;;;;;;;;;;;;;;;;;
2023/03/27 13:42:59;;;;;;;;;;;;;;;;;;;;;
2023/03/27 13:46:00;;;;;;;6.77;1.00;;;16.00;94.50;;;;;;4914550;28;20534;-85
2023/03/27 13:49:39;;;;;;;;;;;;;;;;;;;;;
2023/03/27 14:00:05;;;;;;;3.60;1.07;;;17.40;98.10;;;;;;4921949;29;20448;-84
2023/03/27 14:25:33;;;;;;;;;;;;;;;;;;;;;
2023/03/27 14:28:53;;;;;;;;;;;;;;;;;;;;;
2023/03/27 14:31:44;;;;;;;;;;;;;;;;;;;;;
2023/03/27 14:38:25;;;;;;;3.63;1.33;;;15.10;99.90;;;;;;4927727;29;20455;-84
2023/03/27 14:47:23;;;;;;;2.47;0.90;;;15.70;99.90;;;;;;4980849;28;20441;-84
2023/03/27 14:50:44;;;;;;;;;;;;;;;;;;;;;
2023/03/27 14:58:18;;;;;;;;;;;;;;;;;;;;;
2023/03/27 15:00:42;;;;;;;2.83;1.30;;;15.00;98.80;;;;;;4919263;29;20444;-86
2023/03/27 15:07:32;;;;;;;3.10;1.30;;;13.40;94.20;;;;;;4910157;29;20464;-84
2023/03/27 15:10:21;;;;;;;4.37;1.30;;;12.40;93.80;;;;;;4856435;29;20449;-85
2023/03/27 15:12:57;;;;;;;6.80;1.40;;;11.40;94.50;;;;;;4920362;29;20469;-82
2023/03/27 15:18:34;;;;;;;2.80;1.37;;;10.70;98.40;;;;;;4986326;28;20439;-83
2023/03/27 15:21:43;;;;;;;4.37;1.43;;;10.80;99.90;;;;;;4964167;28;20463;-85
2023/03/27 15:24:59;;;;;;;;;;;;;;;;;;;;;
2023/03/27 15:28:08;;;;;;;2.90;1.43;;;11.00;99.90;;;;;;4943847;28;20475;-82
2023/03/27 15:31:31;;;;;;;5.97;1.47;;;11.10;99.90;;;;;;4979091;28;20510;-87
2023/03/27 15:37:22;;;;;;;2.83;1.40;;;11.50;99.90;;;;;;4979005;28;20435;-83
2023/03/27 15:40:09;;;;;;;4.80;1.80;;;11.50;99.90;;;;;;4979420;28;20451;-85
2023/03/27 15:42:54;;;;;;;4.87;1.50;;;11.40;99.90;;;;;;4967270;28;20464;-85
2023/03/27 15:45:33;;;;;;;2.33;1.57;;;11.20;99.90;;;;;;4968692;28;20439;-84
2023/03/27 15:48:22;;;;;;;4.00;2.23;;;11.00;99.90;;;;;;4966942;28;20435;-86
2023/03/27 15:51:08;;;;;;;6.13;1.90;;;10.80;99.90;;;;;;4984644;28;20570;-82
2023/03/27 15:53:58;;;;;;;5.43;1.50;;;10.60;99.90;;;;;;4969453;28;20593;-84
2023/03/27 15:56:46;;;;;;;5.27;1.53;;;10.60;99.90;;;;;;4987782;28;20431;-83
2023/03/27 15:59:41;;;;;;;10.00;1.50;;;10.50;99.90;;;;;;4957975;28;20439;-83
2023/03/27 16:02:27;;;;;;;6.80;1.50;;;10.40;99.90;;;;;;4974445;28;20442;-85
2023/03/27 16:08:52;;;;;;;;;;;;;;;;;;;;;
2023/03/27 16:12:03;;;;;;;5.30;1.60;;;10.40;99.90;;;;;;4988713;28;20489;-84
2023/03/27 16:15:03;;;;;;;7.47;1.70;;;10.50;99.90;;;;;;4956850;28;20448;-83
2023/03/27 16:17:47;;;;;;;8.17;1.30;;;10.50;99.90;;;;;;4981843;28;20436;-84
2023/03/27 16:20:27;;;;;;;6.03;1.40;;;10.60;99.90;;;;;;4981367;28;20431;-83
2023/03/27 16:22:55;;;;;;;5.63;1.40;;;10.70;99.90;;;;;;4981098;28;20471;-84
2023/03/27 16:25:28;;;;;;;4.53;1.23;;;10.70;99.90;;;;;;4989934;28;20435;-84
2023/03/27 16:28:17;;;;;;;4.93;1.60;;;10.60;99.90;;;;;;4985779;28;20439;-83
2023/03/27 16:34:10;;;;;;;8.83;3.67;;;10.30;99.90;;;;;;4979887;28;20470;-83
2023/03/27 16:36:54;;;;;;;4.17;1.80;;;10.10;99.90;;;;;;4982841;28;20491;-83
2023/03/27 16:39:56;;;;;;;6.07;1.93;;;10.00;99.90;;;;;;4967505;28;20965;-84
2023/03/27 16:42:47;;;;;;;3.97;1.93;;;9.90;99.90;;;;;;4967014;28;20467;-83
2023/03/27 16:45:21;;;;;;;3.57;1.50;;;9.80;99.90;;;;;;4982400;28;20486;-84
2023/03/27 16:48:04;;;;;;;5.93;1.60;;;9.60;99.90;;;;;;4970049;28;20531;-84
2023/03/27 16:50:41;;;;;;;3.30;1.30;;;9.40;99.90;;;;;;4986455;28;20474;-83
2023/03/27 16:53:07;;;;;;;6.30;1.63;;;9.10;99.90;;;;;;4964592;28;20451;-85
2023/03/27 16:55:32;;;;;;;6.27;1.33;;;8.90;99.90;;;;;;4970993;28;20553;-82
2023/03/27 16:58:03;;;;;;;4.67;1.20;;;8.90;99.90;;;;;;4971415;28;20247;-83
2023/03/27 17:00:36;;;;;;;5.50;2.15;;;8.80;99.90;;;;;;4987049;28;20185;-83
2023/03/27 17:03:02;;;;;;;4.80;1.48;;;8.80;99.90;;;;;;4983330;28;20239;-83
2023/03/27 17:05:41;;;;;;;6.90;1.13;;;8.80;99.90;;;;;;4981089;28;20193;-82
2023/03/27 17:08:17;;;;;;;3.92;1.42;;;8.90;99.90;;;;;;4980355;28;20455;-82
2023/03/27 17:10:45;;;;;;;5.57;1.40;;;8.90;99.90;;;;;;4965646;28;20194;-82
2023/03/27 17:13:16;;;;;;;2.85;1.13;;;8.80;99.90;;;;;;4984931;28;20246;-87
2023/03/27 17:16:10;;;;;;;;;;;;;;;;;;;;;
2023/03/27 17:18:38;;;;;;;2.90;1.38;;;8.80;99.90;;;;;;4982723;28;20256;-85
2023/03/27 17:21:06;;;;;;;3.93;1.23;;;8.70;99.90;;;;;;4961545;28;20275;-83
2023/03/27 17:23:35;;;;;;;5.65;1.40;;;8.70;99.90;;;;;;4963744;28;20463;-83
2023/03/27 17:26:04;;;;;;;5.03;1.52;;;8.60;99.90;;;;;;4986324;28;20303;-81
2023/03/27 17:28:30;;;;;;;4.13;1.50;;;8.50;99.90;;;;;;4975497;28;20250;-83
2023/03/27 17:31:07;;;;;;;5.68;1.95;;;8.40;99.90;;;;;;4985146;28;20247;-83
2023/03/27 17:33:40;;;;;;;4.20;1.50;;;8.30;99.90;;;;;;4972682;28;20235;-83
2023/03/27 17:36:13;;;;;;;6.18;2.38;;;8.20;99.90;;;;;;4984564;28;20184;-84
2023/03/27 17:38:40;;;;;;;8.23;1.77;;;8.10;99.90;;;;;;4961726;28;20196;-82
2023/03/27 17:41:12;;;;;;;7.75;1.90;;;8.00;99.90;;;;;;4985770;28;20208;-83
2023/03/27 17:43:50;;;;;;;5.82;2.78;;;8.00;99.90;;;;;;4969500;28;20215;-82
2023/03/27 17:46:46;;;;;;;3.75;2.35;;;7.90;99.90;;;;;;4982707;28;20191;-83
2023/03/27 17:49:35;;;;;;;4.30;1.95;;;7.90;99.90;;;;;;4967249;28;20192;-83
2023/03/27 17:52:18;;;;;;;5.97;1.88;;;7.80;99.90;;;;;;4927987;28;20200;-82
2023/03/27 17:54:57;;;;;;;2.97;1.90;;;7.80;99.90;;;;;;4966201;28;20215;-86
2023/03/27 17:57:40;;;;;;;4.43;1.75;;;7.70;99.90;;;;;;4962214;28;20243;-82
2023/03/27 18:00:24;;;;;;;4.68;2.00;;;7.60;99.90;;;;;;4967458;28;20199;-83
2023/03/27 18:03:50;;;;;;;9.05;2.28;;;7.60;99.90;;;;;;4964434;28;20208;-82
2023/03/27 18:06:34;;;;;;;4.18;2.00;;;7.50;99.90;;;;;;4953133;28;20220;-83
2023/03/27 18:09:12;;;;;;;7.50;1.92;;;7.30;99.90;;;;;;4978709;28;20246;-83
2023/03/27 18:11:50;;;;;;;;;;;;;;;;;;;;;
2023/03/27 18:14:42;;;;;;;5.10;1.67;;;7.00;99.90;;;;;;4983596;28;20311;-81
2023/03/27 18:18:05;;;;;;;;;;;;;;;;;;;;;
2023/03/27 18:21:01;;;;;;;5.35;1.35;;;6.80;99.90;;;;;;4981044;28;20248;-81
2023/03/27 18:23:59;;;;;;;;;;;;;;;;;;;;;
2023/03/27 18:30:25;;;;;;;2.95;1.55;;;6.50;99.90;;;;;;4963676;28;20200;-82
2023/03/27 18:36:09;;;;;;;4.78;2.30;;;6.50;99.90;;;;;;4968631;28;20220;-81
2023/03/27 18:39:40;;;;;;;5.55;2.55;;;6.40;99.90;;;;;;4969200;28;20204;-83
2023/03/27 19:22:04;;;;;;;;;;;;;;;;;;;;;
2023/03/27 19:25:14;;;;;;;;;;;;;;;;;;;;;
2023/03/27 19:39:05;;;;;;;4.97;2.50;;;5.70;99.90;;;;;;4892358;29;20190;-84
2023/03/27 19:41:48;;;;;;;;;;;;;;;;;;;;;
2023/03/27 19:45:29;;;;;;;3.30;2.22;;;5.60;99.90;;;;;;4987424;28;20324;-83
2023/03/27 19:58:58;;;;;;;7.47;2.42;;;5.40;99.90;;;;;;4976326;28;20208;-85
2023/03/27 20:01:43;;;;;;;5.15;2.50;;;5.30;99.90;;;;;;4887446;29;20204;-84
2023/03/27 20:10:50;;;;;;;3.60;2.38;;;5.10;99.90;;;;;;4934463;29;20173;-81
2023/03/27 20:16:01;;;;;;;10.98;3.65;;;5.10;99.90;;;;;;5264890;23;20471;-84
2023/03/27 20:19:29;;;;;;;7.28;2.17;;;5.10;99.90;;;;;;4975311;28;20183;-83
2023/03/27 20:21:59;;;;;;;6.03;2.60;;;5.10;99.90;;;;;;4988503;28;20282;-82
2023/03/27 20:24:35;;;;;;;5.28;2.47;;;5.00;99.90;;;;;;4974085;28;20564;-84
2023/03/27 20:27:06;;;;;;;7.32;2.05;;;5.00;99.90;;;;;;4992456;28;20188;-83
2023/03/27 20:29:41;;;;;;;4.40;2.25;;;4.90;99.90;;;;;;4986796;28;20176;-82
2023/03/27 20:32:36;;;;;;;6.68;1.80;;;4.90;99.90;;;;;;4994736;28;20180;-85
2023/03/27 20:35:14;;;;;;;2.17;1.30;;;4.90;99.90;;;;;;4994914;28;20224;-82
2023/03/27 20:37:42;;;;;;;7.57;1.95;;;4.90;99.90;;;;;;4969906;28;20185;-85
2023/03/27 20:40:17;;;;;;;7.45;1.92;;;4.90;99.90;;;;;;4996006;28;20245;-83
2023/03/27 20:43:29;;;;;;;4.50;2.50;;;4.90;99.90;;;;;;4966398;28;20215;-83
2023/03/27 20:46:12;;;;;;;4.55;1.52;;;4.90;99.90;;;;;;4950166;28;20255;-83
2023/03/27 20:48:47;;;;;;;6.40;1.80;;;4.80;99.90;;;;;;4971975;28;20196;-85
2023/03/27 20:54:26;;;;;;;3.88;1.38;;;4.80;99.90;;;;;;4956322;28;20240;-82
2023/03/27 20:56:51;;;;;;;2.95;1.50;;;4.70;99.90;;;;;;4970066;28;20192;-83
2023/03/27 20:59:37;;;;;;;8.03;2.00;;;4.70;99.90;;;;;;4964867;28;20195;-83
2023/03/27 21:05:01;;;;;;;5.68;2.13;;;4.60;99.90;;;;;;4978211;28;20195;-83
2023/03/27 21:07:40;;;;;;;;;;;;;;;;;;;;;
2023/03/27 21:10:09;;;;;;;11.20;2.08;;;4.60;99.90;;;;;;4980136;28;20256;-84
2023/03/27 21:19:41;;;;;;;6.78;1.92;;;4.50;99.90;;;;;;4943604;28;20195;-83
2023/03/27 21:22:27;;;;;;;5.72;2.90;;;4.50;1.00;;;;;;4942710;28;20335;-80
2023/03/27 21:25:07;;;;;;;9.85;2.72;;;4.40;1.00;;;;;;4984282;28;20192;-82
2023/03/27 21:27:53;;;;;;;6.13;2.00;;;4.40;1.00;;;;;;4959787;28;20193;-79
2023/03/27 21:30:32;;;;;;;10.40;2.15;;;4.40;1.00;;;;;;4970072;28;20184;-83
2023/03/27 21:36:13;;;;;;;7.72;1.80;;;4.30;1.00;;;;;;4980801;28;20184;-80
2023/03/27 21:40:05;;;;;;;;;;;;;;;;;;;;;
2023/03/27 21:46:30;;;;;;;;;;;;;;;;;;;;;
2023/03/27 21:49:05;;;;;;;7.45;3.03;;;4.20;1.00;;;;;;4974600;28;20874;-80
2023/03/27 21:51:35;;;;;;;4.82;2.25;;;4.20;1.00;;;;;;4977679;28;20210;-82
2023/03/27 21:54:20;;;;;;;5.20;2.47;;;4.20;1.00;;;;;;4977846;28;20207;-81
2023/03/27 21:57:20;;;;;;;7.43;2.70;;;4.20;1.00;;;;;;4963160;28;20200;-81
2023/03/27 22:00:17;;;;;;;;;;;;;;;;;;;;;
2023/03/27 22:06:28;;;;;;;5.55;2.17;;;4.20;1.00;;;;;;4981554;28;20278;-80
2023/03/27 22:09:05;;;;;;;5.93;2.75;;;4.10;1.00;;;;;;4970677;28;20592;-81
2023/03/27 22:11:33;;;;;;;10.23;3.00;;;4.10;1.00;;;;;;4959678;28;20191;-79
2023/03/27 22:14:12;;;;;;;10.60;3.10;;;4.10;1.00;;;;;;4977688;28;20220;-82
2023/03/27 22:16:53;;;;;;;10.27;2.22;;;4.10;1.00;;;;;;4961421;28;20256;-84
2023/03/27 22:19:30;;;;;;;6.40;2.53;;;4.10;1.00;;;;;;4962989;28;20184;-80
2023/03/27 22:22:21;;;;;;;7.53;2.35;;;4.10;1.00;;;;;;4985983;28;20187;-81
2023/03/27 22:34:55;;;;;;;5.80;2.77;;;3.90;1.00;;;;;;5179557;23;20267;-84
2023/03/27 22:37:23;;;;;;;9.05;2.63;;;3.90;1.00;;;;;;5003237;28;20244;-82
2023/03/27 22:40:11;;;;;;;10.32;3.30;;;3.90;1.00;;;;;;4987982;28;20179;-82
2023/03/27 22:42:39;;;;;;;10.80;3.15;;;3.90;26.40;;;;;;4994503;28;20218;-85
2023/03/27 22:45:12;;;;;;;8.98;2.67;;;3.90;45.30;;;;;;4995828;28;20194;-84
2023/03/27 22:47:46;;;;;;;7.25;1.95;;;3.90;26.00;;;;;;4999819;28;20176;-84
2023/03/27 22:50:31;;;;;;;9.50;2.60;;;3.90;47.10;;;;;;4976870;28;20183;-85
2023/03/27 22:53:15;;;;;;;11.65;2.40;;;3.90;80.90;;;;;;4984161;28;20207;-82
2023/03/27 22:55:41;;;;;;;6.60;2.55;;;3.90;99.90;;;;;;5002574;28;20172;-82
2023/03/27 22:58:07;;;;;;;7.67;2.97;;;3.80;99.90;;;;;;4992375;28;20177;-83
2023/03/27 23:01:02;;;;;;;9.40;3.00;;;3.80;99.90;;;;;;5009450;28;20230;-82
2023/03/27 23:03:46;;;;;;;;;;;;;;;;;;;;;
2023/03/27 23:06:21;;;;;;;7.45;2.83;;;3.80;99.90;;;;;;5008057;28;20234;-81
2023/03/27 23:08:53;;;;;;;10.52;2.70;;;3.80;99.90;;;;;;4993438;28;20183;-81
2023/03/27 23:11:44;;;;;;;5.47;3.30;;;3.80;99.90;;;;;;4987456;28;20176;-83
2023/03/27 23:14:12;;;;;;;9.65;3.10;;;3.70;99.90;;;;;;4980804;28;20239;-81
2023/03/27 23:19:55;;;;;;;11.05;2.90;;;3.70;99.90;;;;;;5007149;28;20258;-83
2023/03/27 23:22:30;;;;;;;12.55;3.10;;;3.70;99.90;;;;;;5004326;28;20196;-81
2023/03/27 23:25:05;;;;;;;14.35;3.55;;;3.70;99.90;;;;;;5002874;28;20183;-82
2023/03/27 23:27:33;;;;;;;15.45;3.63;;;3.60;99.90;;;;;;4987726;28;20185;-83
2023/03/27 23:30:27;;;;;;;;;;;;;;;;;;;;;
2023/03/27 23:32:58;;;;;;;8.90;2.63;;;3.60;99.90;;;;;;5002651;28;20295;-83
2023/03/27 23:35:44;;;;;;;8.98;2.95;;;3.60;99.90;;;;;;5038219;28;20209;-83
2023/03/27 23:38:14;;;;;;;8.40;2.45;;;3.50;99.90;;;;;;5045340;28;20174;-81
2023/03/27 23:40:43;;;;;;;5.47;2.10;;;3.50;99.90;;;;;;5025723;28;20201;-82
2023/03/27 23:43:32;;;;;;;8.57;2.75;;;3.50;99.90;;;;;;5024889;28;20202;-83
2023/03/27 23:45:58;;;;;;;8.15;2.65;;;3.40;99.90;;;;;;5047710;28;20204;-82
2023/03/27 23:48:43;;;;;;;5.30;2.77;;;3.40;99.90;;;;;;5041090;28;20262;-83
2023/03/27 23:51:16;;;;;;;10.82;2.58;;;3.40;99.90;;;;;;5029617;28;20428;-84
2023/03/27 23:54:09;;;;;;;5.60;2.63;;;3.40;99.90;;;;;;5041043;28;20218;-82
2023/03/27 23:57:39;;;;;;;12.25;3.90;;;3.40;99.90;;;;;;5032073;28;20190;-84
2023/03/27 23:59:49;;;;;;;7.43;2.67;;;3.30;99.90;;;;;;5042588;28;20193;-83
